sensor_id;sensor_type;location;lat;lon;timestamp;P1;durP1;ratioP1;P2;durP2;ratioP2
21589;SDS011;10957;50.968;6.828;2022-08-21T00:03:00;3.10;;;2.95;;
21589;SDS011;10957;50.968;6.828;2022-08-21T00:08:03;2.90;;;2.80;;
21589;SDS011;10957;50.968;6.828;2022-08-21T00:13:04;2.75;;;2.65;;
21589;SDS011;10957;50.968;6.828;2022-08-21T00:18:06;3.10;;;2.95;;
21589;SDS011;10957;50.968;6.828;2022-08-21T00:23:10;2.88;;;2.78;;
21589;SDS011;10957;50.968;6.828;2022-08-21T00:28:12;2.90;;;2.80;;
21589;SDS011;10957;50.968;6.828;2022-08-21T00:33:13;2.70;;;2.60;;
21589;SDS011;10957;50.968;6.828;2022-08-21T00:38:14;5.53;;;4.15;;
21589;SDS011;10957;50.968;6.828;2022-08-21T00:43:17;2.80;;;2.70;;
21589;SDS011;10957;50.968;6.828;2022-08-21T00:48:19;2.72;;;2.63;;
21589;SDS011;10957;50.968;6.828;2022-08-21T00:53:21;4.20;;;3.85;;
21589;SDS011;10957;50.968;6.828;2022-08-21T00:58:22;2.80;;;2.70;;
21589;SDS011;10957;50.968;6.828;2022-08-21T01:03:24;3.20;;;3.10;;
21589;SDS011;10957;50.968;6.828;2022-08-21T01:08:25;2.60;;;2.50;;
21589;SDS011;10957;50.968;6.828;2022-08-21T01:13:30;2.72;;;2.63;;
21589;SDS011;10957;50.968;6.828;2022-08-21T01:18:34;2.97;;;2.88;;
21589;SDS011;10957;50.968;6.828;2022-08-21T01:23:36;2.85;;;2.75;;
21589;SDS011;10957;50.968;6.828;2022-08-21T01:28:40;3.03;;;2.90;;
21589;SDS011;10957;50.968;6.828;2022-08-21T01:33:45;3.05;;;2.95;;
21589;SDS011;10957;50.968;6.828;2022-08-21T01:38:46;3.47;;;3.28;;
21589;SDS011;10957;50.968;6.828;2022-08-21T01:43:47;4.05;;;3.30;;
21589;SDS011;10957;50.968;6.828;2022-08-21T01:48:48;3.33;;;3.20;;
21589;SDS011;10957;50.968;6.828;2022-08-21T01:53:49;2.83;;;2.72;;
21589;SDS011;10957;50.968;6.828;2022-08-21T01:58:50;2.70;;;2.60;;
21589;SDS011;10957;50.968;6.828;2022-08-21T02:03:51;3.10;;;3.00;;
21589;SDS011;10957;50.968;6.828;2022-08-21T02:08:52;3.70;;;3.50;;
21589;SDS011;10957;50.968;6.828;2022-08-21T02:13:53;3.10;;;3.00;;
21589;SDS011;10957;50.968;6.828;2022-08-21T02:18:54;3.28;;;3.17;;
21589;SDS011;10957;50.968;6.828;2022-08-21T02:23:54;2.78;;;2.67;;
21589;SDS011;10957;50.968;6.828;2022-08-21T02:28:55;3.05;;;2.80;;
21589;SDS011;10957;50.968;6.828;2022-08-21T02:33:56;2.60;;;2.50;;
21589;SDS011;10957;50.968;6.828;2022-08-21T02:38:57;2.75;;;2.65;;
21589;SDS011;10957;50.968;6.828;2022-08-21T02:43:58;4.20;;;3.97;;
21589;SDS011;10957;50.968;6.828;2022-08-21T02:48:58;10.07;;;4.13;;
21589;SDS011;10957;50.968;6.828;2022-08-21T02:53:59;2.88;;;2.78;;
21589;SDS011;10957;50.968;6.828;2022-08-21T02:59:00;4.72;;;3.28;;
21589;SDS011;10957;50.968;6.828;2022-08-21T03:04:01;2.85;;;2.75;;
21589;SDS011;10957;50.968;6.828;2022-08-21T03:09:02;3.78;;;3.58;;
21589;SDS011;10957;50.968;6.828;2022-08-21T03:14:03;2.80;;;2.70;;
21589;SDS011;10957;50.968;6.828;2022-08-21T03:19:05;3.10;;;3.00;;
21589;SDS011;10957;50.968;6.828;2022-08-21T03:24:06;2.97;;;2.88;;
21589;SDS011;10957;50.968;6.828;2022-08-21T03:29:07;3.03;;;2.88;;
21589;SDS011;10957;50.968;6.828;2022-08-21T03:34:07;2.88;;;2.78;;
21589;SDS011;10957;50.968;6.828;2022-08-21T03:39:08;2.70;;;2.60;;
21589;SDS011;10957;50.968;6.828;2022-08-21T03:44:09;3.67;;;3.38;;
21589;SDS011;10957;50.968;6.828;2022-08-21T03:49:10;3.20;;;3.10;;
21589;SDS011;10957;50.968;6.828;2022-08-21T03:54:10;3.65;;;3.47;;
21589;SDS011;10957;50.968;6.828;2022-08-21T03:59:11;2.90;;;2.80;;
21589;SDS011;10957;50.968;6.828;2022-08-21T04:04:12;2.85;;;2.75;;
21589;SDS011;10957;50.968;6.828;2022-08-21T04:09:13;3.55;;;3.35;;
21589;SDS011;10957;50.968;6.828;2022-08-21T04:14:14;3.22;;;3.05;;
21589;SDS011;10957;50.968;6.828;2022-08-21T04:19:15;3.05;;;2.95;;
21589;SDS011;10957;50.968;6.828;2022-08-21T04:24:16;3.10;;;2.95;;
21589;SDS011;10957;50.968;6.828;2022-08-21T04:29:17;3.40;;;3.30;;
21589;SDS011;10957;50.968;6.828;2022-08-21T04:34:18;2.95;;;2.85;;
21589;SDS011;10957;50.968;6.828;2022-08-21T04:39:19;3.47;;;3.33;;
21589;SDS011;10957;50.968;6.828;2022-08-21T04:44:19;3.75;;;3.55;;
21589;SDS011;10957;50.968;6.828;2022-08-21T04:49:20;3.67;;;3.47;;
21589;SDS011;10957;50.968;6.828;2022-08-21T04:54:21;3.72;;;3.53;;
21589;SDS011;10957;50.968;6.828;2022-08-21T04:59:24;3.75;;;3.55;;
21589;SDS011;10957;50.968;6.828;2022-08-21T05:04:29;3.20;;;3.10;;
21589;SDS011;10957;50.968;6.828;2022-08-21T05:09:31;6.68;;;4.28;;
21589;SDS011;10957;50.968;6.828;2022-08-21T05:14:33;2.90;;;2.80;;
21589;SDS011;10957;50.968;6.828;2022-08-21T05:19:34;3.00;;;2.80;;
21589;SDS011;10957;50.968;6.828;2022-08-21T05:24:34;2.70;;;2.60;;
21589;SDS011;10957;50.968;6.828;2022-08-21T05:29:35;2.72;;;2.63;;
21589;SDS011;10957;50.968;6.828;2022-08-21T05:34:36;2.95;;;2.80;;
21589;SDS011;10957;50.968;6.828;2022-08-21T05:39:37;2.47;;;2.38;;
21589;SDS011;10957;50.968;6.828;2022-08-21T05:44:38;3.67;;;3.45;;
21589;SDS011;10957;50.968;6.828;2022-08-21T05:49:38;2.55;;;2.45;;
21589;SDS011;10957;50.968;6.828;2022-08-21T05:54:39;2.58;;;2.47;;
21589;SDS011;10957;50.968;6.828;2022-08-21T05:59:40;3.05;;;2.85;;
21589;SDS011;10957;50.968;6.828;2022-08-21T06:04:40;2.50;;;2.40;;
21589;SDS011;10957;50.968;6.828;2022-08-21T06:09:41;3.50;;;3.28;;
21589;SDS011;10957;50.968;6.828;2022-08-21T06:14:42;2.60;;;2.50;;
21589;SDS011;10957;50.968;6.828;2022-08-21T06:19:43;3.78;;;3.35;;
21589;SDS011;10957;50.968;6.828;2022-08-21T06:24:44;2.58;;;2.47;;
21589;SDS011;10957;50.968;6.828;2022-08-21T06:29:44;2.45;;;2.35;;
21589;SDS011;10957;50.968;6.828;2022-08-21T06:34:45;2.10;;;2.00;;
21589;SDS011;10957;50.968;6.828;2022-08-21T06:39:46;2.20;;;2.10;;
21589;SDS011;10957;50.968;6.828;2022-08-21T06:44:46;2.13;;;2.03;;
21589;SDS011;10957;50.968;6.828;2022-08-21T06:49:47;2.70;;;2.55;;
21589;SDS011;10957;50.968;6.828;2022-08-21T06:54:48;2.40;;;2.30;;
21589;SDS011;10957;50.968;6.828;2022-08-21T06:59:50;2.47;;;2.38;;
21589;SDS011;10957;50.968;6.828;2022-08-21T07:04:51;1.92;;;1.85;;
21589;SDS011;10957;50.968;6.828;2022-08-21T07:09:52;2.00;;;1.90;;
21589;SDS011;10957;50.968;6.828;2022-08-21T07:14:52;2.00;;;1.90;;
21589;SDS011;10957;50.968;6.828;2022-08-21T07:19:53;2.00;;;1.90;;
21589;SDS011;10957;50.968;6.828;2022-08-21T07:24:54;1.80;;;1.80;;
21589;SDS011;10957;50.968;6.828;2022-08-21T07:29:55;2.25;;;2.15;;
21589;SDS011;10957;50.968;6.828;2022-08-21T07:34:56;1.70;;;1.70;;
21589;SDS011;10957;50.968;6.828;2022-08-21T07:39:56;2.40;;;2.20;;
21589;SDS011;10957;50.968;6.828;2022-08-21T07:44:57;1.80;;;1.80;;
21589;SDS011;10957;50.968;6.828;2022-08-21T07:49:58;1.80;;;1.80;;
21589;SDS011;10957;50.968;6.828;2022-08-21T07:54:59;1.70;;;1.70;;
21589;SDS011;10957;50.968;6.828;2022-08-21T08:00:00;2.83;;;1.80;;
21589;SDS011;10957;50.968;6.828;2022-08-21T08:05:04;1.73;;;1.70;;
21589;SDS011;10957;50.968;6.828;2022-08-21T08:10:08;2.30;;;2.20;;
21589;SDS011;10957;50.968;6.828;2022-08-21T08:15:12;2.35;;;2.15;;
21589;SDS011;10957;50.968;6.828;2022-08-21T08:20:18;3.65;;;1.98;;
21589;SDS011;10957;50.968;6.828;2022-08-21T08:25:20;3.58;;;2.83;;
21589;SDS011;10957;50.968;6.828;2022-08-21T08:30:23;2.05;;;1.95;;
21589;SDS011;10957;50.968;6.828;2022-08-21T08:35:24;1.70;;;1.70;;
21589;SDS011;10957;50.968;6.828;2022-08-21T08:40:28;2.90;;;2.70;;
21589;SDS011;10957;50.968;6.828;2022-08-21T08:45:39;1.90;;;1.80;;
21589;SDS011;10957;50.968;6.828;2022-08-21T08:50:54;2.10;;;2.00;;
21589;SDS011;10957;50.968;6.828;2022-08-21T08:55:57;2.72;;;2.15;;
21589;SDS011;10957;50.968;6.828;2022-08-21T09:01:00;1.70;;;1.70;;
21589;SDS011;10957;50.968;6.828;2022-08-21T09:17:04;2.75;;;2.58;;
21589;SDS011;10957;50.968;6.828;2022-08-21T09:22:22;1.98;;;1.88;;
21589;SDS011;10957;50.968;6.828;2022-08-21T09:27:39;2.08;;;1.98;;
21589;SDS011;10957;50.968;6.828;2022-08-21T09:32:40;2.25;;;2.15;;
21589;SDS011;10957;50.968;6.828;2022-08-21T09:38:01;2.15;;;2.08;;
21589;SDS011;10957;50.968;6.828;2022-08-21T09:43:10;1.90;;;1.80;;
21589;SDS011;10957;50.968;6.828;2022-08-21T09:48:22;2.05;;;1.95;;
21589;SDS011;10957;50.968;6.828;2022-08-21T09:53:26;2.47;;;2.28;;
21589;SDS011;10957;50.968;6.828;2022-08-21T09:58:33;2.28;;;2.13;;
21589;SDS011;10957;50.968;6.828;2022-08-21T10:03:35;2.10;;;2.00;;
21589;SDS011;10957;50.968;6.828;2022-08-21T10:08:37;2.63;;;2.17;;
21589;SDS011;10957;50.968;6.828;2022-08-21T10:13:59;1.80;;;1.80;;
21589;SDS011;10957;50.968;6.828;2022-08-21T10:19:29;1.98;;;1.83;;
21589;SDS011;10957;50.968;6.828;2022-08-21T10:24:38;1.80;;;1.70;;
21589;SDS011;10957;50.968;6.828;2022-08-21T10:30:04;1.30;;;1.30;;
21589;SDS011;10957;50.968;6.828;2022-08-21T10:50:46;1.80;;;1.70;;
21589;SDS011;10957;50.968;6.828;2022-08-21T10:55:52;2.00;;;1.90;;
21589;SDS011;10957;50.968;6.828;2022-08-21T11:00:58;2.47;;;2.38;;
21589;SDS011;10957;50.968;6.828;2022-08-21T11:06:13;2.75;;;2.55;;
21589;SDS011;10957;50.968;6.828;2022-08-21T11:11:46;5.65;;;2.00;;
21589;SDS011;10957;50.968;6.828;2022-08-21T11:22:15;1.70;;;1.70;;
21589;SDS011;10957;50.968;6.828;2022-08-21T11:27:47;1.60;;;1.60;;
21589;SDS011;10957;50.968;6.828;2022-08-21T11:38:24;2.33;;;2.15;;
21589;SDS011;10957;50.968;6.828;2022-08-21T11:54:06;2.20;;;2.10;;
21589;SDS011;10957;50.968;6.828;2022-08-21T11:59:10;2.30;;;2.20;;
21589;SDS011;10957;50.968;6.828;2022-08-21T12:14:24;1.83;;;1.80;;
21589;SDS011;10957;50.968;6.828;2022-08-21T12:19:41;3.90;;;2.70;;
21589;SDS011;10957;50.968;6.828;2022-08-21T12:24:42;1.75;;;1.73;;
21589;SDS011;10957;50.968;6.828;2022-08-21T12:30:05;1.70;;;1.70;;
21589;SDS011;10957;50.968;6.828;2022-08-21T12:35:41;2.28;;;2.17;;
21589;SDS011;10957;50.968;6.828;2022-08-21T12:46:05;2.10;;;2.00;;
21589;SDS011;10957;50.968;6.828;2022-08-21T12:56:12;2.30;;;2.20;;
21589;SDS011;10957;50.968;6.828;2022-08-21T13:01:26;2.70;;;2.60;;
21589;SDS011;10957;50.968;6.828;2022-08-21T13:06:50;1.80;;;1.75;;
21589;SDS011;10957;50.968;6.828;2022-08-21T13:11:53;1.90;;;1.80;;
21589;SDS011;10957;50.968;6.828;2022-08-21T13:16:55;2.00;;;1.90;;
21589;SDS011;10957;50.968;6.828;2022-08-21T13:22:02;1.95;;;1.85;;
21589;SDS011;10957;50.968;6.828;2022-08-21T13:27:14;2.00;;;1.90;;
21589;SDS011;10957;50.968;6.828;2022-08-21T13:32:23;2.08;;;1.98;;
21589;SDS011;10957;50.968;6.828;2022-08-21T13:37:25;1.80;;;1.80;;
21589;SDS011;10957;50.968;6.828;2022-08-21T13:42:29;1.90;;;1.85;;
21589;SDS011;10957;50.968;6.828;2022-08-21T13:47:29;2.33;;;2.22;;
21589;SDS011;10957;50.968;6.828;2022-08-21T13:52:30;4.85;;;2.45;;
21589;SDS011;10957;50.968;6.828;2022-08-21T13:57:32;2.00;;;1.90;;
21589;SDS011;10957;50.968;6.828;2022-08-21T14:02:37;1.90;;;1.80;;
21589;SDS011;10957;50.968;6.828;2022-08-21T14:07:40;1.60;;;1.60;;
21589;SDS011;10957;50.968;6.828;2022-08-21T14:12:43;2.15;;;2.05;;
21589;SDS011;10957;50.968;6.828;2022-08-21T14:17:51;1.88;;;1.77;;
21589;SDS011;10957;50.968;6.828;2022-08-21T14:22:52;1.80;;;1.70;;
21589;SDS011;10957;50.968;6.828;2022-08-21T14:33:03;1.60;;;1.60;;
21589;SDS011;10957;50.968;6.828;2022-08-21T14:38:14;2.00;;;1.90;;
21589;SDS011;10957;50.968;6.828;2022-08-21T14:43:17;1.60;;;1.60;;
21589;SDS011;10957;50.968;6.828;2022-08-21T14:48:19;1.50;;;1.50;;
21589;SDS011;10957;50.968;6.828;2022-08-21T14:53:20;6.93;;;1.60;;
21589;SDS011;10957;50.968;6.828;2022-08-21T14:58:21;1.42;;;1.42;;
21589;SDS011;10957;50.968;6.828;2022-08-21T15:03:23;1.40;;;1.40;;
21589;SDS011;10957;50.968;6.828;2022-08-21T15:08:25;1.35;;;1.35;;
21589;SDS011;10957;50.968;6.828;2022-08-21T15:13:25;1.95;;;1.85;;
21589;SDS011;10957;50.968;6.828;2022-08-21T15:18:27;1.35;;;1.35;;
21589;SDS011;10957;50.968;6.828;2022-08-21T15:23:29;1.60;;;1.60;;
21589;SDS011;10957;50.968;6.828;2022-08-21T15:28:30;1.70;;;1.60;;
21589;SDS011;10957;50.968;6.828;2022-08-21T15:33:30;1.30;;;1.30;;
21589;SDS011;10957;50.968;6.828;2022-08-21T15:38:31;1.40;;;1.40;;
21589;SDS011;10957;50.968;6.828;2022-08-21T15:48:45;1.25;;;1.25;;
21589;SDS011;10957;50.968;6.828;2022-08-21T15:53:47;1.27;;;1.27;;
21589;SDS011;10957;50.968;6.828;2022-08-21T15:58:48;1.38;;;1.38;;
21589;SDS011;10957;50.968;6.828;2022-08-21T16:03:50;1.50;;;1.50;;
21589;SDS011;10957;50.968;6.828;2022-08-21T16:08:54;11.23;;;1.70;;
21589;SDS011;10957;50.968;6.828;2022-08-21T16:13:54;1.60;;;1.60;;
21589;SDS011;10957;50.968;6.828;2022-08-21T16:18:55;1.50;;;1.50;;
21589;SDS011;10957;50.968;6.828;2022-08-21T16:23:56;1.50;;;1.50;;
21589;SDS011;10957;50.968;6.828;2022-08-21T16:28:57;1.65;;;1.60;;
21589;SDS011;10957;50.968;6.828;2022-08-21T16:33:59;1.70;;;1.60;;
21589;SDS011;10957;50.968;6.828;2022-08-21T16:39:00;1.42;;;1.42;;
21589;SDS011;10957;50.968;6.828;2022-08-21T16:44:02;1.40;;;1.40;;
21589;SDS011;10957;50.968;6.828;2022-08-21T16:49:05;2.75;;;1.90;;
21589;SDS011;10957;50.968;6.828;2022-08-21T16:54:06;1.88;;;1.80;;
21589;SDS011;10957;50.968;6.828;2022-08-21T16:59:08;1.40;;;1.40;;
21589;SDS011;10957;50.968;6.828;2022-08-21T17:04:11;3.90;;;2.10;;
21589;SDS011;10957;50.968;6.828;2022-08-21T17:09:12;1.40;;;1.40;;
21589;SDS011;10957;50.968;6.828;2022-08-21T17:14:14;1.60;;;1.60;;
21589;SDS011;10957;50.968;6.828;2022-08-21T17:19:19;4.97;;;2.08;;
21589;SDS011;10957;50.968;6.828;2022-08-21T17:24:20;1.60;;;1.60;;
21589;SDS011;10957;50.968;6.828;2022-08-21T17:29:24;1.35;;;1.35;;
21589;SDS011;10957;50.968;6.828;2022-08-21T17:34:28;1.60;;;1.58;;
21589;SDS011;10957;50.968;6.828;2022-08-21T17:39:29;1.40;;;1.40;;
21589;SDS011;10957;50.968;6.828;2022-08-21T17:44:30;2.33;;;1.83;;
21589;SDS011;10957;50.968;6.828;2022-08-21T17:49:31;1.50;;;1.50;;
21589;SDS011;10957;50.968;6.828;2022-08-21T17:54:32;17.48;;;1.73;;
21589;SDS011;10957;50.968;6.828;2022-08-21T17:59:33;1.67;;;1.67;;
21589;SDS011;10957;50.968;6.828;2022-08-21T18:04:34;2.58;;;1.80;;
21589;SDS011;10957;50.968;6.828;2022-08-21T18:09:35;1.58;;;1.58;;
21589;SDS011;10957;50.968;6.828;2022-08-21T18:14:36;8.48;;;2.00;;
21589;SDS011;10957;50.968;6.828;2022-08-21T18:19:37;2.20;;;2.10;;
21589;SDS011;10957;50.968;6.828;2022-08-21T18:24:38;2.13;;;1.98;;
21589;SDS011;10957;50.968;6.828;2022-08-21T18:29:39;2.00;;;1.90;;
21589;SDS011;10957;50.968;6.828;2022-08-21T18:34:40;2.00;;;1.90;;
21589;SDS011;10957;50.968;6.828;2022-08-21T18:39:41;2.60;;;2.40;;
21589;SDS011;10957;50.968;6.828;2022-08-21T18:44:43;2.10;;;2.00;;
21589;SDS011;10957;50.968;6.828;2022-08-21T18:49:46;2.00;;;1.90;;
21589;SDS011;10957;50.968;6.828;2022-08-21T18:54:48;2.30;;;2.20;;
21589;SDS011;10957;50.968;6.828;2022-08-21T18:59:49;2.00;;;1.90;;
21589;SDS011;10957;50.968;6.828;2022-08-21T19:04:50;2.75;;;2.65;;
21589;SDS011;10957;50.968;6.828;2022-08-21T19:09:50;2.30;;;2.20;;
21589;SDS011;10957;50.968;6.828;2022-08-21T19:14:52;2.40;;;2.30;;
21589;SDS011;10957;50.968;6.828;2022-08-21T19:19:54;2.28;;;2.17;;
21589;SDS011;10957;50.968;6.828;2022-08-21T19:24:58;2.50;;;2.40;;
21589;SDS011;10957;50.968;6.828;2022-08-21T19:29:59;3.05;;;2.95;;
21589;SDS011;10957;50.968;6.828;2022-08-21T19:35:01;2.20;;;2.10;;
21589;SDS011;10957;50.968;6.828;2022-08-21T19:40:02;2.42;;;2.33;;
21589;SDS011;10957;50.968;6.828;2022-08-21T19:45:04;2.22;;;2.13;;
21589;SDS011;10957;50.968;6.828;2022-08-21T19:50:05;2.45;;;2.30;;
21589;SDS011;10957;50.968;6.828;2022-08-21T19:55:07;2.10;;;2.00;;
21589;SDS011;10957;50.968;6.828;2022-08-21T20:00:10;2.40;;;2.30;;
21589;SDS011;10957;50.968;6.828;2022-08-21T20:05:11;2.67;;;2.50;;
21589;SDS011;10957;50.968;6.828;2022-08-21T20:10:12;6.03;;;2.22;;
21589;SDS011;10957;50.968;6.828;2022-08-21T20:15:13;2.67;;;2.40;;
21589;SDS011;10957;50.968;6.828;2022-08-21T20:20:18;2.50;;;2.40;;
21589;SDS011;10957;50.968;6.828;2022-08-21T20:25:20;2.35;;;2.25;;
21589;SDS011;10957;50.968;6.828;2022-08-21T20:30:22;2.40;;;2.30;;
21589;SDS011;10957;50.968;6.828;2022-08-21T20:35:22;2.30;;;2.20;;
21589;SDS011;10957;50.968;6.828;2022-08-21T20:40:23;2.70;;;2.60;;
21589;SDS011;10957;50.968;6.828;2022-08-21T20:45:26;2.60;;;2.50;;
21589;SDS011;10957;50.968;6.828;2022-08-21T20:50:29;2.53;;;2.42;;
21589;SDS011;10957;50.968;6.828;2022-08-21T20:55:34;2.50;;;2.40;;
21589;SDS011;10957;50.968;6.828;2022-08-21T21:00:38;2.00;;;1.90;;
21589;SDS011;10957;50.968;6.828;2022-08-21T21:05:56;2.20;;;2.10;;
21589;SDS011;10957;50.968;6.828;2022-08-21T21:11:02;2.50;;;2.40;;
21589;SDS011;10957;50.968;6.828;2022-08-21T21:16:09;2.50;;;2.40;;
21589;SDS011;10957;50.968;6.828;2022-08-21T21:32:33;2.50;;;2.40;;
21589;SDS011;10957;50.968;6.828;2022-08-21T21:37:36;2.20;;;2.10;;
21589;SDS011;10957;50.968;6.828;2022-08-21T21:53:50;2.67;;;2.55;;
21589;SDS011;10957;50.968;6.828;2022-08-21T21:59:35;2.30;;;2.20;;
21589;SDS011;10957;50.968;6.828;2022-08-21T22:04:50;2.80;;;2.60;;
21589;SDS011;10957;50.968;6.828;2022-08-21T22:10:04;2.00;;;1.90;;
21589;SDS011;10957;50.968;6.828;2022-08-21T22:15:14;2.40;;;2.30;;
21589;SDS011;10957;50.968;6.828;2022-08-21T22:20:18;2.22;;;2.13;;
21589;SDS011;10957;50.968;6.828;2022-08-21T22:25:32;2.30;;;2.20;;
21589;SDS011;10957;50.968;6.828;2022-08-21T22:30:43;2.42;;;2.33;;
21589;SDS011;10957;50.968;6.828;2022-08-21T22:35:44;3.30;;;3.00;;
21589;SDS011;10957;50.968;6.828;2022-08-21T22:40:46;2.22;;;2.13;;
21589;SDS011;10957;50.968;6.828;2022-08-21T22:51:03;2.13;;;2.03;;
21589;SDS011;10957;50.968;6.828;2022-08-21T22:56:08;2.03;;;1.92;;
21589;SDS011;10957;50.968;6.828;2022-08-21T23:01:16;3.08;;;2.97;;
21589;SDS011;10957;50.968;6.828;2022-08-21T23:06:43;2.17;;;2.08;;
21589;SDS011;10957;50.968;6.828;2022-08-21T23:11:55;2.17;;;2.08;;
21589;SDS011;10957;50.968;6.828;2022-08-21T23:17:03;2.58;;;2.45;;
21589;SDS011;10957;50.968;6.828;2022-08-21T23:27:35;2.17;;;2.08;;
21589;SDS011;10957;50.968;6.828;2022-08-21T23:32:51;3.13;;;2.92;;
21589;SDS011;10957;50.968;6.828;2022-08-21T23:38:17;2.58;;;2.47;;
21589;SDS011;10957;50.968;6.828;2022-08-21T23:43:46;2.33;;;2.22;;
